Weather History for KCKC - August, 2013

Change the Weather History Date:

Saturday, August 24, 2013

  Actual Average Record
Temperature  
Mean Temperature 62 °F -  
Max Temperature 75 °F 67 °F 87 °F (2003)
Min Temperature 48 °F 48 °F 33 °F (2017)
Degree Days  
Heating Degree Days 4    
Growing Degree Days 12 (Base 50)    
Moisture  
Dew Point 56 °F    
Average Humidity 76    
Maximum Humidity 93    
Minimum Humidity 57    
Precipitation  
Precipitation 0.00 in - - ()
Sea Level Pressure  
Sea Level Pressure 30.08 in    
Wind  
Wind Speed 3 mph (SSE)    
Max Wind Speed 12 mph    
Max Gust Speed 22 mph    
Visibility 10 miles    
Events      
Averages and records for this station are not official NWS values.
T = Trace of Precipitation, MM = Missing Value Source: NWS Daily Summary

Daily Weather History Graph

Daily Weather History Graph

Search for Another Location

Airport or City:

Trip Planner

Search our weather history database for the weather conditions in past years. The results will help you decide how hot, cold, wet, or windy it might be!

Date:

Astronomy

Aug. 24, 2013 Rise Set
Actual Time 6:09 AM CDT 7:57 PM CDT
Civil Twilight 5:36 AM CDT 8:30 PM CDT
Nautical Twilight 4:55 AM CDT 9:10 PM CDT
Astronomical Twilight 4:11 AM CDT 9:54 PM CDT
Moon 9:27 PM CDT (8/24) 10:31 AM CDT (8/24)
Length of Visible Light 14h 53m
Length of Day
13h 48m
Waning Gibbous, 84% of the Moon is Illuminated
Aug 24
Waning Gibbous
Aug 28
Last Quarter
Sep 5
New
Sep 12
First Quarter
Sep 19
Full

Hourly Weather History & Observations

Time (CDT) Temp. Dew Point Humidity Pressure Visibility Wind Dir Wind Speed Gust Speed Precip Events Conditions
12:13 AM 50.0 °F 46.4 °F 87% 30.13 in 7.0 mi Calm Calm - N/A   Clear
12:34 AM 50.0 °F 46.4 °F 87% 30.13 in 7.0 mi North 3.5 mph - N/A   Scattered Clouds
12:53 AM 50.0 °F 46.4 °F 87% 30.13 in 7.0 mi Calm Calm - N/A   Scattered Clouds
1:13 AM 50.0 °F 46.4 °F 87% 30.14 in 7.0 mi Calm Calm - N/A   Clear
1:34 AM 50.0 °F 46.4 °F 87% 30.14 in 7.0 mi Calm Calm - N/A   Clear
1:53 AM 50.0 °F 46.4 °F 87% 30.14 in 10.0 mi Calm Calm - N/A   Clear
2:13 AM 50.0 °F 46.4 °F 87% 30.14 in 10.0 mi Calm Calm - N/A   Clear
2:34 AM 48.2 °F 46.4 °F 93% 30.14 in 10.0 mi Calm Calm - N/A   Clear
2:53 AM 48.2 °F 44.6 °F 87% 30.15 in 10.0 mi Calm Calm - N/A   Clear
3:13 AM 48.2 °F 44.6 °F 87% 30.15 in 10.0 mi Calm Calm - N/A   Clear
3:34 AM 48.2 °F 44.6 °F 87% 30.15 in 7.0 mi Calm Calm - N/A   Clear
3:53 AM 50.0 °F 46.4 °F 87% 30.15 in 10.0 mi Calm Calm - N/A   Clear
4:13 AM 48.2 °F 46.4 °F 93% 30.15 in 10.0 mi Calm Calm - N/A   Clear
4:34 AM 48.2 °F 44.6 °F 87% 30.15 in 10.0 mi Calm Calm - N/A   Clear
4:53 AM 48.2 °F 46.4 °F 93% 30.16 in 10.0 mi Calm Calm - N/A   Clear
5:13 AM 48.2 °F 44.6 °F 87% 30.15 in 10.0 mi Calm Calm - N/A   Clear
5:33 AM 50.0 °F 46.4 °F 87% 30.15 in 10.0 mi Calm Calm - N/A   Clear
5:54 AM 50.0 °F 46.4 °F 87% 30.15 in 10.0 mi Calm Calm - N/A   Clear
6:14 AM 55.4 °F 48.2 °F 77% 30.15 in 10.0 mi SE 3.5 mph - N/A   Scattered Clouds
6:33 AM 57.2 °F 50.0 °F 77% 30.15 in 10.0 mi SSE 3.5 mph - N/A   Clear
6:53 AM 59.0 °F 48.2 °F 67% 30.15 in 10.0 mi Calm Calm - N/A   Clear
7:13 AM 60.8 °F 50.0 °F 68% 30.15 in 10.0 mi Calm Calm - N/A   Clear
7:34 AM 60.8 °F 51.8 °F 72% 30.14 in 10.0 mi SE 3.5 mph - N/A   Clear
7:53 AM 60.8 °F 51.8 °F 72% 30.14 in 10.0 mi Calm Calm - N/A   Clear
8:14 AM 62.6 °F 55.4 °F 77% 30.15 in 10.0 mi SE 4.6 mph - N/A   Scattered Clouds
8:33 AM 62.6 °F 57.2 °F 82% 30.15 in 10.0 mi SSE 4.6 mph - N/A   Mostly Cloudy
8:53 AM 64.4 °F 57.2 °F 77% 30.14 in 10.0 mi SSE 4.6 mph - N/A   Scattered Clouds
9:14 AM 64.4 °F 59.0 °F 83% 30.14 in 10.0 mi SSE 6.9 mph - N/A   Scattered Clouds
9:33 AM 64.4 °F 57.2 °F 77% 30.15 in 10.0 mi South 5.8 mph - N/A   Scattered Clouds
9:53 AM 66.2 °F 59.0 °F 78% 30.14 in 10.0 mi South 3.5 mph - N/A   Scattered Clouds
10:14 AM 66.2 °F 59.0 °F 78% 30.13 in 10.0 mi SE 4.6 mph - N/A   Clear
10:33 AM 66.2 °F 59.0 °F 78% 30.12 in 10.0 mi SSE 3.5 mph - N/A   Clear
10:53 AM 66.2 °F 59.0 °F 78% 30.13 in 10.0 mi SSE 4.6 mph - N/A   Scattered Clouds
11:14 AM 66.2 °F 59.0 °F 78% 30.13 in 10.0 mi SE 3.5 mph - N/A   Mostly Cloudy
11:33 AM 66.2 °F 57.2 °F 73% 30.13 in 10.0 mi SE 4.6 mph - N/A   Mostly Cloudy
11:54 AM 66.2 °F 59.0 °F 78% 30.13 in 10.0 mi SSE 6.9 mph - N/A   Scattered Clouds
12:13 PM 68.0 °F 59.0 °F 73% 30.12 in 10.0 mi South 6.9 mph - N/A   Scattered Clouds
12:33 PM 69.8 °F 59.0 °F 68% 30.10 in 10.0 mi South 4.6 mph - N/A   Clear
12:54 PM 71.6 °F 60.8 °F 69% 30.10 in 10.0 mi South 9.2 mph - N/A   Clear
1:13 PM 71.6 °F 59.0 °F 64% 30.09 in 10.0 mi SSE 5.8 mph - N/A   Clear
1:33 PM 71.6 °F 59.0 °F 64% 30.10 in 10.0 mi SSE 9.2 mph - N/A   Clear
1:54 PM 71.6 °F 60.8 °F 69% 30.09 in 10.0 mi South 10.4 mph - N/A   Clear
2:13 PM 73.4 °F 60.8 °F 65% 30.09 in 10.0 mi SSE 6.9 mph 17.3 mph N/A   Clear
2:33 PM 71.6 °F 60.8 °F 69% 30.08 in 10.0 mi SSE 8.1 mph 16.1 mph N/A   Clear
2:54 PM 73.4 °F 60.8 °F 65% 30.08 in 10.0 mi SSE 10.4 mph 16.1 mph N/A   Clear
3:13 PM 73.4 °F 60.8 °F 65% 30.07 in 10.0 mi SSE 10.4 mph 16.1 mph N/A   Clear
3:33 PM 73.4 °F 60.8 °F 65% 30.06 in 10.0 mi SE 10.4 mph - N/A   Clear
3:54 PM 75.2 °F 60.8 °F 61% 30.06 in 10.0 mi SSE 11.5 mph 17.3 mph N/A   Clear
4:13 PM 75.2 °F 59.0 °F 57% 30.06 in 10.0 mi South 10.4 mph 18.4 mph N/A   Clear
4:33 PM 75.2 °F 59.0 °F 57% 30.05 in 10.0 mi SSE 11.5 mph 17.3 mph N/A   Clear
4:54 PM 75.2 °F 60.8 °F 61% 30.04 in 10.0 mi SSE 11.5 mph 19.6 mph N/A   Clear
5:13 PM 73.4 °F 60.8 °F 65% 30.03 in 10.0 mi SSE 10.4 mph 16.1 mph N/A   Clear
5:33 PM 73.4 °F 59.0 °F 61% 30.02 in 10.0 mi South 11.5 mph 21.9 mph N/A   Clear
5:54 PM 71.6 °F 59.0 °F 64% 30.02 in 10.0 mi South 10.4 mph 19.6 mph N/A   Clear
6:13 PM 69.8 °F 59.0 °F 68% 30.01 in 10.0 mi SSE 6.9 mph 17.3 mph N/A   Clear
6:33 PM 71.6 °F 59.0 °F 64% 30.00 in 10.0 mi SSE 8.1 mph - N/A   Clear
6:53 PM 69.8 °F 59.0 °F 68% 30.00 in 10.0 mi South 6.9 mph - N/A   Clear
7:14 PM 69.8 °F 59.0 °F 68% 30.00 in 10.0 mi SSE 6.9 mph - N/A   Clear
7:34 PM 68.0 °F 59.0 °F 73% 29.99 in 10.0 mi SSE 5.8 mph - N/A   Clear
7:54 PM 66.2 °F 60.8 °F 83% 29.98 in 10.0 mi SSE 4.6 mph - N/A   Clear
8:13 PM 66.2 °F 60.8 °F 83% 29.97 in 10.0 mi South 5.8 mph - N/A   Clear
8:33 PM 66.2 °F 60.8 °F 83% 29.96 in 10.0 mi South 5.8 mph - N/A   Clear
8:53 PM 68.0 °F 60.8 °F 78% 29.95 in 10.0 mi South 9.2 mph 16.1 mph N/A   Scattered Clouds
9:14 PM 69.8 °F 60.8 °F 73% 29.95 in 10.0 mi South 10.4 mph 16.1 mph N/A   Mostly Cloudy
9:33 PM 69.8 °F 60.8 °F 73% 29.96 in 10.0 mi South 9.2 mph 17.3 mph N/A   Scattered Clouds
9:53 PM 69.8 °F 60.8 °F 73% 29.97 in 10.0 mi South 10.4 mph - N/A   Scattered Clouds
10:14 PM 69.8 °F 60.8 °F 73% 29.97 in 10.0 mi South 8.1 mph - N/A   Scattered Clouds
10:33 PM 69.8 °F 62.6 °F 78% 29.97 in 10.0 mi SSE 8.1 mph - N/A   Clear
10:53 PM 69.8 °F 62.6 °F 78% 29.96 in 10.0 mi SSE 9.2 mph - N/A   Mostly Cloudy
11:14 PM 69.8 °F 62.6 °F 78% 29.97 in 10.0 mi South 8.1 mph - N/A   Mostly Cloudy
11:33 PM 69.8 °F 62.6 °F 78% 29.97 in 10.0 mi South 5.8 mph - N/A   Scattered Clouds
11:53 PM 71.6 °F 62.6 °F 73% 29.97 in 10.0 mi South 9.2 mph - N/A   Mostly Cloudy